createdAt,value
2017-11-10T00:01:03.602Z,91.59
2017-11-10T00:03:30.438Z,92.73
2017-11-10T00:05:57.271Z,92.46
2017-11-10T00:08:24.873Z,92.21
2017-11-10T00:10:51.749Z,93.05
2017-11-10T00:13:18.599Z,92.11
2017-11-10T00:15:45.472Z,91.96
2017-11-10T00:18:19.590Z,92.31
2017-11-10T00:20:46.876Z,93.24
2017-11-10T00:23:15.667Z,92.79
2017-11-10T00:25:42.501Z,92.58
2017-11-10T00:28:10.110Z,92.26
2017-11-10T00:30:36.967Z,92.02
2017-11-10T00:33:03.858Z,92.76
2017-11-10T00:35:30.732Z,92.71
2017-11-10T00:37:57.629Z,92.54
2017-11-10T00:40:25.214Z,92.18
2017-11-10T00:42:53.017Z,92.09
2017-11-10T00:45:19.975Z,91.95
2017-11-10T00:47:46.846Z,92.23
2017-11-10T00:50:13.768Z,92.36
2017-11-10T00:52:41.070Z,92.75
2017-11-10T00:55:08.144Z,92.85
2017-11-10T00:57:35.034Z,92.27
2017-11-10T01:00:02.096Z,92.40
2017-11-10T01:02:28.978Z,92.52
2017-11-10T01:04:55.817Z,92.26
2017-11-10T01:07:23.195Z,92.74
2017-11-10T01:09:51.760Z,92.55
2017-11-10T01:12:18.660Z,92.55
2017-11-10T01:14:45.532Z,93.27
2017-11-10T01:17:13.893Z,93.17
2017-11-10T01:19:41.609Z,92.72
2017-11-10T01:22:08.457Z,92.62
2017-11-10T01:24:35.289Z,92.59
2017-11-10T01:27:02.129Z,92.74
2017-11-10T01:29:29.710Z,92.46
2017-11-10T01:31:57.281Z,92.60
2017-11-10T01:34:24.873Z,92.75
2017-11-10T01:36:52.501Z,92.92
2017-11-10T01:39:19.333Z,92.58
2017-11-10T01:41:46.213Z,92.63
2017-11-10T01:44:13.054Z,93.12
2017-11-10T01:46:39.925Z,92.99
2017-11-10T01:49:06.804Z,92.90
2017-11-10T01:51:33.649Z,92.80
2017-11-10T01:54:00.581Z,92.76
2017-11-10T01:56:28.284Z,93.03
2017-11-10T01:58:55.130Z,92.79
2017-11-10T02:01:22.039Z,93.12
2017-11-10T02:03:48.894Z,93.77
2017-11-10T02:06:15.741Z,94.44
2017-11-10T02:08:42.612Z,94.31
2017-11-10T02:11:09.473Z,93.35
2017-11-10T02:13:36.334Z,93.28
2017-11-10T02:16:03.890Z,93.71
2017-11-10T02:18:30.790Z,94.20
2017-11-10T02:20:57.662Z,94.23
2017-11-10T02:23:24.585Z,93.55
2017-11-10T02:25:51.504Z,93.76
2017-11-10T02:28:19.152Z,93.96
2017-11-10T02:30:46.067Z,93.68
2017-11-10T02:33:13.756Z,93.84
2017-11-10T02:35:40.698Z,93.38
2017-11-10T02:38:08.319Z,94.10
2017-11-10T02:40:35.185Z,93.85
2017-11-10T02:43:02.086Z,94.16
2017-11-10T02:45:28.991Z,93.97
2017-11-10T02:47:55.854Z,94.15
2017-11-10T02:50:22.748Z,94.35
2017-11-10T02:52:49.625Z,94.69
2017-11-10T02:55:16.545Z,94.71
2017-11-10T02:57:43.406Z,94.79
2017-11-10T03:00:10.340Z,94.44
2017-11-10T03:02:37.908Z,94.22
2017-11-10T03:05:04.728Z,95.35
2017-11-10T03:07:31.640Z,94.87
2017-11-10T03:09:59.247Z,94.73
2017-11-10T03:12:26.177Z,94.96
2017-11-10T03:14:53.914Z,95.01
2017-11-10T03:17:20.865Z,94.80
2017-11-10T03:19:47.792Z,94.58
2017-11-10T03:22:15.430Z,94.82
2017-11-10T03:24:42.327Z,95.21
2017-11-10T03:27:09.994Z,94.64
2017-11-10T03:29:36.825Z,94.71
2017-11-10T03:32:03.711Z,94.29
2017-11-10T03:34:30.579Z,94.65
2017-11-10T03:36:57.471Z,94.67
2017-11-10T03:39:24.344Z,94.88
2017-11-10T03:41:51.196Z,94.88
2017-11-10T03:44:18.105Z,94.54
2017-11-10T03:46:44.975Z,94.40
2017-11-10T03:49:11.828Z,94.57
2017-11-10T03:51:38.713Z,94.82
2017-11-10T03:54:05.590Z,94.81
2017-11-10T03:56:33.236Z,94.57
2017-11-10T03:59:00.060Z,94.67
2017-11-10T04:01:26.906Z,94.75
2017-11-10T04:03:53.751Z,95.54
2017-11-10T04:06:21.353Z,95.74
2017-11-10T04:08:48.219Z,95.25
2017-11-10T04:11:15.161Z,94.78
2017-11-10T04:13:42.809Z,95.00
2017-11-10T04:16:09.676Z,95.10
2017-11-10T04:18:37.292Z,94.84
2017-11-10T04:21:04.140Z,94.92
2017-11-10T04:23:31.798Z,94.89
2017-11-10T04:25:58.658Z,95.27
2017-11-10T04:28:25.535Z,95.69
2017-11-10T04:30:53.188Z,95.50
2017-11-10T04:33:20.135Z,95.45
2017-11-10T04:35:47.038Z,95.58
2017-11-10T04:38:14.611Z,95.35
2017-11-10T04:40:42.232Z,95.42
2017-11-10T04:43:09.061Z,95.92
2017-11-10T04:45:36.671Z,95.61
2017-11-10T04:48:03.572Z,95.64
2017-11-10T04:50:30.468Z,95.31
2017-11-10T04:52:58.127Z,96.16
2017-11-10T04:55:24.985Z,95.69
2017-11-10T04:57:51.894Z,95.65
2017-11-10T05:00:18.808Z,95.92
2017-11-10T05:02:45.691Z,95.77
2017-11-10T05:05:12.582Z,95.83
2017-11-10T05:07:39.465Z,95.55
2017-11-10T05:10:06.369Z,95.72
2017-11-10T05:12:33.366Z,95.59
2017-11-10T05:15:00.252Z,95.99
2017-11-10T05:17:27.106Z,96.01
2017-11-10T05:19:53.976Z,96.00
2017-11-10T05:22:20.828Z,95.76
2017-11-10T05:24:47.768Z,96.33
2017-11-10T05:27:15.396Z,96.12
2017-11-10T05:29:42.261Z,96.18
2017-11-10T05:32:09.681Z,96.07
2017-11-10T05:34:37.292Z,96.06
2017-11-10T05:37:04.290Z,96.13
2017-11-10T05:39:31.226Z,95.91
2017-11-10T05:41:58.132Z,96.04
2017-11-10T05:44:25.765Z,96.04
2017-11-10T05:46:52.644Z,96.42
2017-11-10T05:49:19.507Z,96.05
2017-11-10T05:51:46.416Z,96.11
2017-11-10T05:54:13.344Z,96.14
2017-11-10T05:56:40.232Z,96.34
2017-11-10T05:59:07.893Z,96.12
2017-11-10T06:01:34.827Z,96.30
2017-11-10T06:04:01.830Z,96.05
2017-11-10T06:06:28.738Z,96.17
2017-11-10T06:08:55.670Z,96.20
2017-11-10T06:11:23.244Z,96.28
2017-11-10T06:13:51.637Z,96.11
2017-11-10T06:16:19.265Z,96.38
2017-11-10T06:18:46.240Z,96.40
2017-11-10T06:21:13.139Z,96.18
2017-11-10T06:23:40.770Z,96.22
2017-11-10T06:26:08.739Z,96.15
2017-11-10T06:28:35.612Z,96.13
2017-11-10T06:31:02.505Z,96.40
2017-11-10T06:33:29.397Z,96.18
2017-11-10T06:35:57.006Z,95.93
2017-11-10T06:38:23.897Z,95.91
2017-11-10T06:40:50.814Z,96.21
2017-11-10T06:43:17.678Z,95.98
2017-11-10T06:45:44.562Z,96.03
2017-11-10T06:48:12.204Z,96.10
2017-11-10T06:50:39.797Z,95.86
2017-11-10T06:53:06.632Z,95.90
2017-11-10T06:55:33.490Z,95.91
2017-11-10T06:58:07.923Z,95.91
2017-11-10T07:00:34.848Z,95.75
2017-11-10T07:03:01.719Z,95.77
2017-11-10T07:05:28.589Z,95.71
2017-11-10T07:07:55.468Z,95.58
2017-11-10T07:10:22.372Z,95.72
2017-11-10T07:12:49.315Z,95.70
2017-11-10T07:15:16.936Z,95.89
2017-11-10T07:17:43.769Z,95.77
2017-11-10T07:20:10.680Z,95.69
2017-11-10T07:22:37.527Z,95.53
2017-11-10T07:25:04.381Z,95.70
2017-11-10T07:27:31.285Z,95.73
2017-11-10T07:29:58.161Z,95.84
2017-11-10T07:32:25.769Z,95.74
2017-11-10T07:34:52.582Z,95.58
2017-11-10T07:37:19.418Z,95.31
2017-11-10T07:39:46.273Z,95.71
2017-11-10T07:42:13.101Z,95.42
2017-11-10T07:44:39.913Z,95.24
2017-11-10T07:47:06.732Z,95.48
2017-11-10T07:49:33.577Z,95.59
2017-11-10T07:52:00.408Z,95.58
2017-11-10T07:54:27.250Z,96.21
2017-11-10T07:56:54.120Z,95.93
2017-11-10T07:59:20.939Z,96.32
2017-11-10T08:01:47.791Z,96.21
2017-11-10T08:04:14.638Z,96.49
2017-11-10T08:06:41.476Z,96.47
2017-11-10T08:09:08.312Z,96.76
2017-11-10T08:11:35.136Z,96.81
2017-11-10T08:14:01.985Z,96.86
2017-11-10T08:16:28.836Z,96.85
2017-11-10T08:18:56.457Z,96.95
2017-11-10T08:21:23.289Z,96.72
2017-11-10T08:23:50.084Z,96.52
2017-11-10T08:26:16.915Z,96.56
2017-11-10T08:28:43.774Z,96.47
2017-11-10T08:31:10.645Z,96.87
2017-11-10T08:33:38.268Z,96.71
2017-11-10T08:36:05.084Z,96.43
2017-11-10T08:38:31.919Z,96.97
2017-11-10T08:40:59.520Z,96.77
2017-11-10T08:43:26.352Z,97.13
2017-11-10T08:45:53.984Z,97.08
2017-11-10T08:48:20.780Z,97.08
2017-11-10T08:50:47.625Z,97.19
2017-11-10T08:53:14.461Z,97.14
2017-11-10T08:55:41.317Z,97.13
2017-11-10T08:58:08.952Z,97.59
2017-11-10T09:00:36.512Z,97.60
2017-11-10T09:03:03.334Z,97.79
2017-11-10T09:05:30.174Z,97.26
2017-11-10T09:07:57.069Z,97.35
2017-11-10T09:10:23.954Z,97.37
2017-11-10T09:12:50.796Z,97.25
2017-11-10T09:15:17.586Z,97.38
2017-11-10T09:17:45.472Z,97.30
2017-11-10T09:20:13.407Z,97.93
2017-11-10T09:22:40.363Z,97.43
2017-11-10T09:25:07.276Z,97.36
2017-11-10T09:27:34.251Z,97.93
2017-11-10T09:30:20.945Z,97.42
2017-11-10T09:46:30.121Z,97.46
2017-11-10T09:49:03.195Z,97.24
2017-11-10T09:51:36.497Z,97.10
2017-11-10T09:54:09.641Z,97.00
2017-11-10T09:56:44.361Z,97.04
2017-11-10T09:59:13.116Z,96.80
2017-11-10T10:01:49.873Z,96.63
2017-11-10T10:17:45.955Z,96.36
2017-11-10T10:20:26.714Z,96.09
2017-11-10T10:22:55.673Z,95.80
2017-11-10T10:25:22.572Z,96.22
2017-11-10T10:27:49.455Z,95.83
2017-11-10T10:30:16.400Z,95.64
2017-11-10T10:32:43.250Z,95.67
2017-11-10T10:35:10.172Z,95.47
2017-11-10T10:37:37.113Z,95.05
2017-11-10T10:40:04.084Z,95.06
2017-11-10T10:42:30.967Z,94.98
2017-11-10T10:44:57.886Z,95.10
2017-11-10T10:47:24.750Z,95.02
2017-11-10T10:49:51.610Z,94.78
2017-11-10T10:52:18.446Z,94.54
2017-11-10T10:54:46.038Z,93.60
2017-11-10T10:57:12.893Z,94.24
2017-11-10T10:59:40.377Z,94.24
2017-11-10T11:02:07.234Z,93.62
2017-11-10T11:04:34.032Z,93.70
2017-11-10T11:07:00.914Z,93.91
2017-11-10T11:09:27.831Z,94.00
2017-11-10T11:11:54.803Z,93.19
2017-11-10T11:14:21.652Z,93.78
2017-11-10T11:16:48.533Z,93.58
2017-11-10T11:19:15.384Z,94.15
2017-11-10T11:21:42.292Z,93.99
2017-11-10T11:24:09.141Z,93.83
2017-11-10T11:26:36.457Z,94.30
2017-11-10T11:29:03.301Z,94.56
2017-11-10T11:31:31.697Z,95.12
2017-11-10T11:33:59.329Z,95.53
2017-11-10T11:36:26.207Z,95.84
2017-11-10T11:38:53.079Z,96.14
2017-11-10T11:41:19.958Z,96.77
2017-11-10T11:43:47.089Z,96.77
2017-11-10T11:46:13.963Z,97.11
2017-11-10T11:48:40.850Z,97.23
2017-11-10T11:51:08.579Z,97.14
2017-11-10T11:53:35.458Z,97.52
2017-11-10T11:56:02.391Z,97.80
2017-11-10T11:58:29.346Z,97.63
2017-11-10T12:00:56.237Z,97.30
2017-11-10T12:03:23.143Z,97.33
2017-11-10T12:05:50.061Z,97.62
2017-11-10T12:08:17.879Z,97.67
2017-11-10T12:10:45.605Z,97.60
2017-11-10T12:13:12.537Z,97.62
2017-11-10T12:15:40.287Z,98.19
2017-11-10T12:18:07.173Z,98.41
2017-11-10T12:20:34.296Z,98.44
2017-11-10T12:23:01.354Z,98.21
2017-11-10T12:25:28.313Z,98.32
2017-11-10T12:27:55.233Z,98.55
2017-11-10T12:30:22.954Z,98.31
2017-11-10T12:32:49.893Z,98.53
2017-11-10T12:35:17.533Z,98.35
2017-11-10T12:37:44.437Z,98.87
2017-11-10T12:40:12.094Z,98.52
2017-11-10T12:42:39.007Z,98.55
2017-11-10T12:45:06.629Z,98.23
2017-11-10T12:47:33.654Z,98.17
2017-11-10T12:50:00.617Z,98.37
2017-11-10T12:52:29.112Z,98.08
2017-11-10T12:54:55.988Z,98.12
2017-11-10T12:57:22.845Z,97.59
2017-11-10T12:59:50.492Z,97.16
2017-11-10T13:02:20.158Z,97.21
2017-11-10T13:04:47.843Z,97.21
2017-11-10T13:07:14.702Z,97.17
2017-11-10T13:09:41.548Z,96.66
2017-11-10T13:12:08.455Z,96.43
2017-11-10T13:14:35.603Z,96.62
2017-11-10T13:17:02.503Z,96.28
2017-11-10T13:19:29.398Z,96.57
2017-11-10T13:21:56.342Z,96.49
2017-11-10T13:24:24.020Z,96.19
2017-11-10T13:26:51.596Z,95.39
2017-11-10T13:29:19.167Z,95.59
2017-11-10T13:31:46.002Z,95.08
2017-11-10T13:34:12.824Z,95.00
2017-11-10T13:36:39.712Z,94.56
2017-11-10T13:39:06.568Z,94.81
2017-11-10T13:41:33.382Z,94.13
2017-11-10T13:44:01.068Z,93.89
2017-11-10T13:46:27.905Z,93.19
2017-11-10T13:48:54.781Z,94.05
2017-11-10T13:51:22.370Z,93.40
2017-11-10T13:53:49.192Z,93.49
2017-11-10T13:56:16.069Z,93.54
2017-11-10T13:58:43.017Z,93.66
2017-11-10T14:01:09.988Z,93.30
2017-11-10T14:03:36.853Z,93.06
2017-11-10T14:06:03.782Z,92.82
2017-11-10T14:08:30.629Z,93.97
2017-11-10T14:10:59.354Z,93.60
2017-11-10T14:13:28.711Z,94.59
2017-11-10T14:15:55.646Z,95.41
2017-11-10T14:18:26.281Z,95.98
2017-11-10T14:20:53.241Z,95.07
2017-11-10T14:23:20.142Z,95.97
2017-11-10T14:25:47.044Z,95.01
2017-11-10T14:28:13.906Z,95.08
2017-11-10T14:30:40.819Z,95.16
2017-11-10T14:33:07.912Z,95.09
2017-11-10T14:35:38.980Z,94.75
2017-11-10T14:51:05.596Z,93.86
2017-11-10T14:53:33.234Z,93.33
2017-11-10T14:56:00.891Z,94.20
2017-11-10T14:58:28.984Z,93.85
2017-11-10T15:00:55.928Z,93.88
2017-11-10T15:03:22.803Z,92.79
2017-11-10T15:05:49.783Z,92.97
2017-11-10T15:08:16.726Z,93.11
2017-11-10T15:10:43.666Z,91.86
2017-11-10T15:13:12.313Z,92.49
2017-11-10T15:15:39.660Z,92.56
2017-11-10T15:18:06.515Z,92.99
2017-11-10T15:20:33.402Z,93.31
2017-11-10T15:23:00.319Z,91.86
2017-11-10T15:25:27.241Z,91.94
2017-11-10T15:27:54.517Z,91.09
2017-11-10T15:30:21.512Z,91.80
2017-11-10T15:32:49.869Z,89.98
2017-11-10T15:35:18.934Z,90.06
2017-11-10T15:37:45.800Z,89.65
2017-11-10T15:40:12.788Z,91.15
2017-11-10T15:42:39.714Z,90.36
2017-11-10T15:45:06.587Z,90.75
2017-11-10T15:47:33.400Z,91.30
2017-11-10T15:50:00.285Z,91.30
2017-11-10T15:52:32.555Z,88.08
2017-11-10T15:54:59.547Z,87.79
2017-11-10T15:57:28.031Z,89.13
2017-11-10T15:59:55.889Z,90.25
2017-11-10T16:02:23.562Z,90.85
2017-11-10T16:04:50.517Z,90.16
2017-11-10T16:07:18.522Z,90.64
2017-11-10T16:09:47.210Z,90.77
2017-11-10T16:12:14.864Z,91.57
2017-11-10T16:14:41.746Z,90.29
2017-11-10T16:17:08.609Z,91.54
2017-11-10T16:19:35.527Z,91.65
2017-11-10T16:22:02.406Z,91.08
2017-11-10T16:24:29.289Z,92.17
2017-11-10T16:26:56.955Z,91.60
2017-11-10T16:29:25.072Z,91.89
2017-11-10T16:31:51.940Z,91.44
2017-11-10T16:34:18.815Z,91.08
2017-11-10T16:36:45.694Z,90.85
2017-11-10T16:39:13.301Z,91.46
2017-11-10T16:41:40.191Z,91.10
2017-11-10T16:44:07.186Z,91.62
2017-11-10T16:46:35.805Z,90.58
2017-11-10T16:49:03.477Z,91.33
2017-11-10T16:51:30.352Z,90.74
2017-11-10T16:53:57.988Z,90.69
2017-11-10T16:56:25.104Z,90.70
2017-11-10T16:58:52.702Z,90.20
2017-11-10T17:01:20.046Z,90.66
2017-11-10T17:03:47.697Z,91.27
2017-11-10T17:06:14.636Z,91.39
2017-11-10T17:08:41.538Z,91.09
2017-11-10T17:11:08.437Z,91.25
2017-11-10T17:13:35.396Z,91.29
2017-11-10T17:16:02.323Z,91.21
2017-11-10T17:18:29.565Z,91.05
2017-11-10T17:20:56.447Z,91.38
2017-11-10T17:23:23.321Z,92.06
2017-11-10T17:25:50.190Z,92.58
2017-11-10T17:28:17.122Z,92.35
2017-11-10T17:30:44.027Z,91.52
2017-11-10T17:33:11.653Z,91.50
2017-11-10T17:35:38.576Z,91.18
2017-11-10T17:38:05.520Z,92.15
2017-11-10T17:40:33.159Z,92.21
2017-11-10T17:43:00.015Z,91.00
2017-11-10T17:45:26.865Z,91.62
2017-11-10T17:47:53.775Z,91.09
2017-11-10T17:50:20.725Z,91.58
2017-11-10T17:52:50.426Z,91.34
2017-11-10T17:55:17.395Z,91.59
2017-11-10T17:57:44.341Z,91.40
2017-11-10T18:00:11.279Z,90.19
2017-11-10T18:02:38.854Z,89.96
2017-11-10T18:05:08.673Z,90.04
2017-11-10T18:07:35.554Z,90.04
2017-11-10T18:10:02.419Z,90.21
2017-11-10T18:12:29.316Z,88.89
2017-11-10T18:14:56.191Z,89.63
2017-11-10T18:17:23.081Z,89.29
2017-11-10T18:19:49.963Z,89.09
2017-11-10T18:22:17.642Z,87.83
2017-11-10T18:24:44.494Z,88.35
2017-11-10T18:27:12.115Z,87.79
2017-11-10T18:29:43.973Z,87.07
2017-11-10T18:32:12.516Z,88.40
2017-11-10T18:34:39.432Z,88.09
2017-11-10T18:37:06.366Z,88.59
2017-11-10T18:39:34.064Z,87.74
2017-11-10T18:42:01.691Z,87.52
2017-11-10T18:44:28.621Z,88.35
2017-11-10T18:46:56.010Z,86.21
2017-11-10T18:49:27.660Z,86.99
2017-11-10T18:51:54.555Z,87.54
2017-11-10T18:54:21.451Z,85.98
2017-11-10T18:56:48.326Z,87.23
2017-11-10T18:59:15.998Z,86.83
2017-11-10T19:01:43.609Z,86.34
2017-11-10T19:04:11.981Z,87.57
2017-11-10T19:06:39.695Z,85.53
2017-11-10T19:09:06.591Z,86.44
2017-11-10T19:11:33.425Z,86.84
2017-11-10T19:14:00.285Z,86.32
2017-11-10T19:16:27.105Z,86.57
2017-11-10T19:18:54.750Z,86.77
2017-11-10T19:21:22.010Z,86.21
2017-11-10T19:23:48.951Z,86.97
2017-11-10T19:26:17.528Z,86.34
2017-11-10T19:28:44.490Z,87.36
2017-11-10T19:31:13.695Z,87.54
2017-11-10T19:33:41.497Z,87.11
2017-11-10T19:36:10.290Z,87.60
2017-11-10T19:38:38.535Z,87.34
2017-11-10T19:41:06.593Z,87.12
2017-11-10T19:43:33.588Z,87.24
2017-11-10T19:46:01.738Z,87.70
2017-11-10T19:48:28.777Z,87.92
2017-11-10T19:50:57.448Z,88.17
2017-11-10T19:53:27.002Z,88.53
2017-11-10T19:55:54.722Z,87.58
2017-11-10T19:58:24.425Z,87.98
2017-11-10T20:00:52.845Z,88.34
2017-11-10T20:03:21.730Z,87.71
2017-11-10T20:05:49.679Z,86.28
2017-11-10T20:08:16.736Z,86.85
2017-11-10T20:10:46.267Z,86.83
2017-11-10T20:13:14.126Z,87.65
2017-11-10T20:15:42.996Z,87.88
2017-11-10T20:18:12.954Z,87.34
2017-11-10T20:20:40.817Z,86.85
2017-11-10T20:23:10.557Z,86.74
2017-11-10T20:25:40.355Z,86.42
2017-11-10T20:28:09.194Z,87.43
2017-11-10T20:30:38.172Z,87.79
2017-11-10T20:33:07.411Z,87.57
2017-11-10T20:35:36.811Z,88.15
2017-11-10T20:38:06.451Z,87.46
2017-11-10T20:40:36.450Z,87.78
2017-11-10T20:43:06.384Z,88.16
2017-11-10T20:45:35.394Z,87.99
2017-11-10T20:48:04.246Z,86.61
2017-11-10T20:50:34.330Z,87.12
2017-11-10T20:55:45.039Z,86.25
2017-11-10T20:58:13.509Z,85.71
2017-11-10T21:00:43.227Z,86.79
2017-11-10T21:03:15.358Z,85.77
2017-11-10T21:05:44.394Z,85.75
2017-11-10T21:08:12.271Z,86.08
2017-11-10T21:10:41.152Z,86.14
2017-11-10T21:13:10.128Z,85.56
2017-11-10T21:15:39.294Z,86.33
2017-11-10T21:18:07.901Z,85.56
2017-11-10T21:20:35.616Z,85.86
2017-11-10T21:23:03.530Z,85.92
2017-11-10T21:25:31.845Z,84.95
2017-11-10T21:28:01.427Z,85.31
2017-11-10T21:30:30.503Z,86.29
2017-11-10T21:32:58.076Z,86.20
2017-11-10T21:35:26.220Z,86.53
2017-11-10T21:37:54.060Z,86.43
2017-11-10T21:40:21.947Z,86.93
2017-11-10T21:42:50.415Z,86.43
2017-11-10T21:45:18.069Z,86.60
2017-11-10T21:47:44.976Z,86.46
2017-11-10T21:50:12.121Z,86.63
2017-11-10T21:52:39.195Z,87.40
2017-11-10T21:55:06.560Z,86.82
2017-11-10T21:57:33.513Z,86.67
2017-11-10T22:00:00.490Z,86.72
2017-11-10T22:02:27.352Z,86.28
2017-11-10T22:04:54.263Z,86.72
2017-11-10T22:07:22.001Z,86.55
2017-11-10T22:09:48.904Z,86.58
2017-11-10T22:12:16.458Z,86.19
2017-11-10T22:14:43.292Z,86.82
2017-11-10T22:17:10.156Z,86.66
2017-11-10T22:19:37.048Z,86.43
2017-11-10T22:22:03.979Z,86.79
2017-11-10T22:24:35.229Z,87.11
2017-11-10T22:27:02.169Z,86.54
2017-11-10T22:29:29.035Z,85.32
2017-11-10T22:31:55.916Z,86.35
2017-11-10T22:34:22.748Z,86.02
2017-11-10T22:36:49.595Z,86.71
2017-11-10T22:39:16.480Z,86.51
2017-11-10T22:41:43.345Z,86.37
2017-11-10T22:44:10.194Z,86.49
2017-11-10T22:46:37.801Z,87.08
2017-11-10T22:49:04.669Z,86.41
2017-11-10T22:51:31.522Z,87.11
2017-11-10T22:53:58.408Z,87.19
2017-11-10T22:56:25.264Z,87.59
2017-11-10T22:58:52.141Z,87.41
2017-11-10T23:01:19.028Z,88.24
2017-11-10T23:03:46.611Z,88.55
2017-11-10T23:06:14.218Z,88.12
2017-11-10T23:08:41.107Z,89.05
2017-11-10T23:11:08.009Z,88.48
2017-11-10T23:13:34.861Z,89.25
2017-11-10T23:16:01.708Z,89.15
2017-11-10T23:18:28.604Z,89.52
2017-11-10T23:20:56.203Z,89.78
2017-11-10T23:23:23.101Z,90.34
2017-11-10T23:25:49.949Z,89.99
2017-11-10T23:28:16.792Z,89.85
2017-11-10T23:30:43.672Z,89.21
2017-11-10T23:33:10.609Z,88.79
2017-11-10T23:35:37.452Z,89.20
2017-11-10T23:38:04.322Z,90.00
2017-11-10T23:40:31.898Z,89.70
2017-11-10T23:42:58.708Z,89.82
2017-11-10T23:45:25.539Z,89.31
2017-11-10T23:47:52.365Z,89.00
2017-11-10T23:50:19.279Z,88.87
2017-11-10T23:52:46.096Z,89.40
2017-11-10T23:55:13.683Z,89.98
2017-11-10T23:57:41.247Z,90.66
